sensor_id;sensor_type;location;lat;lon;timestamp;pressure;altitude;pressure_sealevel;temperature;humidity
42859;BME280;28505;56.970;40.998;2023-03-19T00:04:17;101692.72;;;-6.69;100.00
42859;BME280;28505;56.970;40.998;2023-03-19T00:09:42;101696.72;;;-6.45;100.00
42859;BME280;28505;56.970;40.998;2023-03-19T00:15:05;101666.06;;;-6.54;100.00
42859;BME280;28505;56.970;40.998;2023-03-19T00:20:29;101668.28;;;-6.40;100.00
42859;BME280;28505;56.970;40.998;2023-03-19T00:25:54;101673.59;;;-6.13;100.00
42859;BME280;28505;56.970;40.998;2023-03-19T00:31:17;101657.09;;;-5.95;100.00
42859;BME280;28505;56.970;40.998;2023-03-19T00:36:39;101668.59;;;-5.69;100.00
42859;BME280;28505;56.970;40.998;2023-03-19T00:42:02;101639.25;;;-5.64;100.00
42859;BME280;28505;56.970;40.998;2023-03-19T00:47:26;101662.59;;;-5.33;100.00
42859;BME280;28505;56.970;40.998;2023-03-19T00:52:50;101641.28;;;-5.30;100.00
42859;BME280;28505;56.970;40.998;2023-03-19T00:58:12;101602.13;;;-5.51;100.00
42859;BME280;28505;56.970;40.998;2023-03-19T01:03:35;101629.56;;;-5.36;100.00
42859;BME280;28505;56.970;40.998;2023-03-19T01:08:58;101606.50;;;-5.42;100.00
42859;BME280;28505;56.970;40.998;2023-03-19T01:14:21;101638.69;;;-5.12;100.00
42859;BME280;28505;56.970;40.998;2023-03-19T01:19:45;101634.09;;;-5.28;100.00
42859;BME280;28505;56.970;40.998;2023-03-19T01:25:09;101651.66;;;-5.29;100.00
42859;BME280;28505;56.970;40.998;2023-03-19T01:30:40;101626.06;;;-5.54;100.00
42859;BME280;28505;56.970;40.998;2023-03-19T01:36:24;101656.16;;;-5.39;100.00
42859;BME280;28505;56.970;40.998;2023-03-19T01:41:54;101637.66;;;-5.75;100.00
42859;BME280;28505;56.970;40.998;2023-03-19T01:47:38;101642.19;;;-5.95;100.00
42859;BME280;28505;56.970;40.998;2023-03-19T01:53:04;101625.44;;;-6.31;100.00
42859;BME280;28505;56.970;40.998;2023-03-19T01:58:52;101600.34;;;-6.53;100.00
42859;BME280;28505;56.970;40.998;2023-03-19T02:04:35;101621.88;;;-6.49;100.00
42859;BME280;28505;56.970;40.998;2023-03-19T02:10:01;101589.72;;;-6.71;100.00
42859;BME280;28505;56.970;40.998;2023-03-19T02:15:24;101631.56;;;-6.60;100.00
42859;BME280;28505;56.970;40.998;2023-03-19T02:21:12;101610.16;;;-6.74;100.00
42859;BME280;28505;56.970;40.998;2023-03-19T02:26:38;101576.09;;;-6.94;100.00
42859;BME280;28505;56.970;40.998;2023-03-19T02:32:01;101586.47;;;-6.92;100.00
42859;BME280;28505;56.970;40.998;2023-03-19T02:37:28;101601.66;;;-6.96;100.00
42859;BME280;28505;56.970;40.998;2023-03-19T02:42:54;101584.38;;;-6.98;100.00
42859;BME280;28505;56.970;40.998;2023-03-19T02:48:16;101606.72;;;-6.94;100.00
42859;BME280;28505;56.970;40.998;2023-03-19T02:53:39;101581.63;;;-7.07;100.00
42859;BME280;28505;56.970;40.998;2023-03-19T02:59:01;101600.13;;;-6.98;100.00
42859;BME280;28505;56.970;40.998;2023-03-19T03:04:23;101584.94;;;-7.04;100.00
42859;BME280;28505;56.970;40.998;2023-03-19T03:09:47;101558.88;;;-7.16;100.00
42859;BME280;28505;56.970;40.998;2023-03-19T03:15:09;101575.16;;;-7.02;100.00
42859;BME280;28505;56.970;40.998;2023-03-19T03:20:31;101558.72;;;-7.14;100.00
42859;BME280;28505;56.970;40.998;2023-03-19T03:25:54;101532.78;;;-7.27;100.00
42859;BME280;28505;56.970;40.998;2023-03-19T03:31:17;101558.88;;;-7.25;100.00
42859;BME280;28505;56.970;40.998;2023-03-19T03:36:40;101500.38;;;-7.84;100.00
42859;BME280;28505;56.970;40.998;2023-03-19T03:42:02;101518.22;;;-7.99;100.00
42859;BME280;28505;56.970;40.998;2023-03-19T03:47:27;101532.13;;;-8.08;100.00
42859;BME280;28505;56.970;40.998;2023-03-19T03:52:49;101543.50;;;-8.19;100.00
42859;BME280;28505;56.970;40.998;2023-03-19T03:58:12;101521.16;;;-8.42;100.00
42859;BME280;28505;56.970;40.998;2023-03-19T04:03:35;101553.19;;;-8.10;100.00
42859;BME280;28505;56.970;40.998;2023-03-19T04:08:57;101518.91;;;-8.07;100.00
42859;BME280;28505;56.970;40.998;2023-03-19T04:14:29;101532.09;;;-7.68;100.00
42859;BME280;28505;56.970;40.998;2023-03-19T04:19:52;101539.97;;;-7.39;100.00
42859;BME280;28505;56.970;40.998;2023-03-19T04:25:14;101509.75;;;-7.33;100.00
42859;BME280;28505;56.970;40.998;2023-03-19T04:30:36;101514.84;;;-6.93;100.00
42859;BME280;28505;56.970;40.998;2023-03-19T04:36:06;101496.28;;;-6.62;100.00
42859;BME280;28505;56.970;40.998;2023-03-19T04:41:31;101529.03;;;-5.83;100.00
42859;BME280;28505;56.970;40.998;2023-03-19T04:47:07;101489.13;;;-5.51;100.00
42859;BME280;28505;56.970;40.998;2023-03-19T04:52:43;101490.75;;;-4.97;100.00
42859;BME280;28505;56.970;40.998;2023-03-19T04:58:06;101496.81;;;-4.36;100.00
42859;BME280;28505;56.970;40.998;2023-03-19T05:03:30;101510.22;;;-3.70;100.00
42859;BME280;28505;56.970;40.998;2023-03-19T05:08:53;101475.50;;;-3.41;100.00
42859;BME280;28505;56.970;40.998;2023-03-19T05:14:16;101492.16;;;-3.00;100.00
42859;BME280;28505;56.970;40.998;2023-03-19T05:19:58;101471.66;;;-2.73;100.00
42859;BME280;28505;56.970;40.998;2023-03-19T05:25:22;101485.06;;;-2.36;100.00
42859;BME280;28505;56.970;40.998;2023-03-19T05:30:45;101477.88;;;-2.10;100.00
42859;BME280;28505;56.970;40.998;2023-03-19T05:36:12;101455.81;;;-1.95;100.00
42859;BME280;28505;56.970;40.998;2023-03-19T05:41:48;101459.09;;;-1.61;100.00
42859;BME280;28505;56.970;40.998;2023-03-19T05:47:14;101419.84;;;-1.50;100.00
42859;BME280;28505;56.970;40.998;2023-03-19T05:52:45;101428.56;;;-1.26;100.00
42859;BME280;28505;56.970;40.998;2023-03-19T05:58:07;101436.59;;;-1.05;100.00
42859;BME280;28505;56.970;40.998;2023-03-19T06:03:29;101435.28;;;-0.86;100.00
42859;BME280;28505;56.970;40.998;2023-03-19T06:08:58;101448.59;;;-0.50;100.00
42859;BME280;28505;56.970;40.998;2023-03-19T06:14:32;101432.22;;;-0.24;100.00
42859;BME280;28505;56.970;40.998;2023-03-19T06:20:35;101397.00;;;-0.03;100.00
42859;BME280;28505;56.970;40.998;2023-03-19T06:25:58;101390.06;;;0.18;100.00
42859;BME280;28505;56.970;40.998;2023-03-19T06:31:26;101395.81;;;0.43;100.00
42859;BME280;28505;56.970;40.998;2023-03-19T06:36:55;101379.56;;;0.53;100.00
42859;BME280;28505;56.970;40.998;2023-03-19T06:42:17;101390.22;;;0.87;100.00
42859;BME280;28505;56.970;40.998;2023-03-19T06:47:42;101362.09;;;1.00;100.00
42859;BME280;28505;56.970;40.998;2023-03-19T06:53:09;101378.59;;;1.30;100.00
42859;BME280;28505;56.970;40.998;2023-03-19T06:58:31;101396.50;;;1.56;100.00
42859;BME280;28505;56.970;40.998;2023-03-19T07:03:54;101354.63;;;1.58;100.00
42859;BME280;28505;56.970;40.998;2023-03-19T07:09:20;101347.53;;;1.85;100.00
42859;BME280;28505;56.970;40.998;2023-03-19T07:14:43;101361.50;;;2.07;99.34
42859;BME280;28505;56.970;40.998;2023-03-19T07:20:05;101330.38;;;2.01;97.36
42859;BME280;28505;56.970;40.998;2023-03-19T07:25:28;101336.13;;;2.11;94.81
42859;BME280;28505;56.970;40.998;2023-03-19T07:30:53;101354.75;;;2.38;96.63
42859;BME280;28505;56.970;40.998;2023-03-19T07:36:16;101326.09;;;2.33;95.85
42859;BME280;28505;56.970;40.998;2023-03-19T07:41:42;101324.66;;;2.57;95.24
42859;BME280;28505;56.970;40.998;2023-03-19T07:47:07;101317.47;;;2.64;90.66
42859;BME280;28505;56.970;40.998;2023-03-19T07:52:49;101333.03;;;2.67;89.61
42859;BME280;28505;56.970;40.998;2023-03-19T07:58:12;101307.22;;;2.68;92.76
42859;BME280;28505;56.970;40.998;2023-03-19T08:03:34;101318.69;;;2.75;89.45
42859;BME280;28505;56.970;40.998;2023-03-19T08:08:56;101292.50;;;2.58;87.21
42859;BME280;28505;56.970;40.998;2023-03-19T08:14:19;101306.38;;;2.74;89.47
42859;BME280;28505;56.970;40.998;2023-03-19T08:19:42;101294.09;;;2.79;88.39
42859;BME280;28505;56.970;40.998;2023-03-19T08:25:06;101287.50;;;2.89;87.60
42859;BME280;28505;56.970;40.998;2023-03-19T08:30:28;101288.72;;;2.93;88.74
42859;BME280;28505;56.970;40.998;2023-03-19T08:35:50;101271.75;;;2.80;87.94
42859;BME280;28505;56.970;40.998;2023-03-19T08:41:13;101258.44;;;2.80;88.99
42859;BME280;28505;56.970;40.998;2023-03-19T08:46:35;101257.19;;;2.83;87.73
42859;BME280;28505;56.970;40.998;2023-03-19T08:51:57;101232.22;;;2.77;90.98
42859;BME280;28505;56.970;40.998;2023-03-19T08:57:23;101223.47;;;2.64;85.00
42859;BME280;28505;56.970;40.998;2023-03-19T09:02:48;101210.16;;;2.57;87.49
42859;BME280;28505;56.970;40.998;2023-03-19T09:08:10;101215.91;;;2.61;86.46
42859;BME280;28505;56.970;40.998;2023-03-19T09:13:33;101225.47;;;2.81;87.91
42859;BME280;28505;56.970;40.998;2023-03-19T09:18:56;101195.81;;;2.65;89.45
42859;BME280;28505;56.970;40.998;2023-03-19T09:24:19;101179.88;;;2.51;85.56
42859;BME280;28505;56.970;40.998;2023-03-19T09:29:42;101167.41;;;2.52;88.51
42859;BME280;28505;56.970;40.998;2023-03-19T09:35:05;101183.13;;;2.60;85.16
42859;BME280;28505;56.970;40.998;2023-03-19T09:40:37;101185.72;;;2.80;88.44
42859;BME280;28505;56.970;40.998;2023-03-19T09:46:02;101169.09;;;2.91;87.59
42859;BME280;28505;56.970;40.998;2023-03-19T09:52:04;101178.66;;;2.99;89.03
42859;BME280;28505;56.970;40.998;2023-03-19T09:57:31;101167.66;;;2.89;90.42
42859;BME280;28505;56.970;40.998;2023-03-19T10:20:11;101131.97;;;2.96;88.03
42859;BME280;28505;56.970;40.998;2023-03-19T10:25:38;101123.16;;;2.96;87.53
42859;BME280;28505;56.970;40.998;2023-03-19T10:42:54;101125.72;;;3.09;83.58
42859;BME280;28505;56.970;40.998;2023-03-19T10:48:26;101104.94;;;2.93;82.76
42859;BME280;28505;56.970;40.998;2023-03-19T10:53:51;101100.59;;;2.98;79.81
42859;BME280;28505;56.970;40.998;2023-03-19T10:59:36;101086.63;;;3.03;83.46
42859;BME280;28505;56.970;40.998;2023-03-19T11:10:34;101076.16;;;3.33;84.02
42859;BME280;28505;56.970;40.998;2023-03-19T11:15:59;101079.84;;;3.32;82.58
42859;BME280;28505;56.970;40.998;2023-03-19T11:21:29;101067.41;;;3.26;81.40
42859;BME280;28505;56.970;40.998;2023-03-19T11:26:55;101064.69;;;3.33;77.74
42859;BME280;28505;56.970;40.998;2023-03-19T11:38:23;101045.94;;;3.21;76.52
42859;BME280;28505;56.970;40.998;2023-03-19T11:43:54;101043.78;;;3.29;74.82
42859;BME280;28505;56.970;40.998;2023-03-19T12:34:48;100955.28;;;3.02;68.24
42859;BME280;28505;56.970;40.998;2023-03-19T12:45:44;100923.31;;;2.77;66.46
42859;BME280;28505;56.970;40.998;2023-03-19T12:51:11;100890.47;;;2.65;67.69
42859;BME280;28505;56.970;40.998;2023-03-19T13:08:31;100878.09;;;2.52;66.59
42859;BME280;28505;56.970;40.998;2023-03-19T13:14:03;100891.09;;;2.61;65.94
42859;BME280;28505;56.970;40.998;2023-03-19T13:19:51;100891.34;;;2.59;67.34
42859;BME280;28505;56.970;40.998;2023-03-19T13:25:48;100860.53;;;2.45;67.30
42859;BME280;28505;56.970;40.998;2023-03-19T13:31:20;100853.53;;;2.50;69.19
42859;BME280;28505;56.970;40.998;2023-03-19T13:36:50;100849.75;;;2.58;70.69
42859;BME280;28505;56.970;40.998;2023-03-19T13:42:38;100864.31;;;2.80;71.75
42859;BME280;28505;56.970;40.998;2023-03-19T13:59:26;100825.97;;;2.63;73.44
42859;BME280;28505;56.970;40.998;2023-03-19T14:05:06;100825.91;;;2.70;73.44
42859;BME280;28505;56.970;40.998;2023-03-19T14:10:31;100814.88;;;2.66;72.99
42859;BME280;28505;56.970;40.998;2023-03-19T14:16:33;100794.38;;;2.48;73.99
42859;BME280;28505;56.970;40.998;2023-03-19T14:27:16;100811.81;;;2.44;74.44
42859;BME280;28505;56.970;40.998;2023-03-19T14:32:40;100799.22;;;2.33;75.36
42859;BME280;28505;56.970;40.998;2023-03-19T14:38:13;100806.84;;;2.29;76.84
42859;BME280;28505;56.970;40.998;2023-03-19T14:50:15;100803.69;;;2.14;78.66
42859;BME280;28505;56.970;40.998;2023-03-19T14:55:51;100799.28;;;2.01;79.71
42859;BME280;28505;56.970;40.998;2023-03-19T15:01:14;100791.44;;;1.81;80.44
42859;BME280;28505;56.970;40.998;2023-03-19T15:06:39;100796.03;;;1.68;81.54
42859;BME280;28505;56.970;40.998;2023-03-19T15:17:42;100779.66;;;1.32;82.14
42859;BME280;28505;56.970;40.998;2023-03-19T15:23:18;100789.97;;;1.09;83.01
42859;BME280;28505;56.970;40.998;2023-03-19T15:28:49;100775.56;;;0.72;85.28
42859;BME280;28505;56.970;40.998;2023-03-19T15:34:19;100796.03;;;0.44;87.47
42859;BME280;28505;56.970;40.998;2023-03-19T15:39:49;100795.03;;;0.06;90.27
42859;BME280;28505;56.970;40.998;2023-03-19T15:45:17;100802.38;;;-0.10;91.51
42859;BME280;28505;56.970;40.998;2023-03-19T15:50:43;100756.25;;;-0.49;92.00
42859;BME280;28505;56.970;40.998;2023-03-19T15:56:07;100764.75;;;-0.66;92.55
42859;BME280;28505;56.970;40.998;2023-03-19T16:01:32;100798.78;;;-0.57;92.16
42859;BME280;28505;56.970;40.998;2023-03-19T16:06:56;100800.38;;;-0.69;92.70
42859;BME280;28505;56.970;40.998;2023-03-19T16:12:37;100794.63;;;-0.79;92.71
42859;BME280;28505;56.970;40.998;2023-03-19T16:18:29;100798.63;;;-1.03;94.59
42859;BME280;28505;56.970;40.998;2023-03-19T16:24:26;100787.72;;;-1.22;96.74
42859;BME280;28505;56.970;40.998;2023-03-19T16:29:56;100786.41;;;-1.39;97.36
42859;BME280;28505;56.970;40.998;2023-03-19T16:35:19;100789.59;;;-1.50;99.44
42859;BME280;28505;56.970;40.998;2023-03-19T16:46:07;100754.75;;;-1.89;100.00
42859;BME280;28505;56.970;40.998;2023-03-19T16:51:36;100785.94;;;-1.77;100.00
42859;BME280;28505;56.970;40.998;2023-03-19T16:56:59;100770.72;;;-1.97;100.00
42859;BME280;28505;56.970;40.998;2023-03-19T17:02:24;100774.34;;;-2.04;100.00
42859;BME280;28505;56.970;40.998;2023-03-19T17:07:48;100755.91;;;-2.19;100.00
42859;BME280;28505;56.970;40.998;2023-03-19T17:13:23;100752.53;;;-2.34;100.00
42859;BME280;28505;56.970;40.998;2023-03-19T17:18:53;100736.44;;;-2.40;100.00
42859;BME280;28505;56.970;40.998;2023-03-19T17:24:24;100729.16;;;-2.38;100.00
42859;BME280;28505;56.970;40.998;2023-03-19T17:29:47;100734.97;;;-2.42;100.00
42859;BME280;28505;56.970;40.998;2023-03-19T17:35:15;100721.34;;;-2.67;100.00
42859;BME280;28505;56.970;40.998;2023-03-19T17:40:38;100735.63;;;-2.62;100.00
42859;BME280;28505;56.970;40.998;2023-03-19T17:46:01;100704.09;;;-2.85;100.00
42859;BME280;28505;56.970;40.998;2023-03-19T17:51:27;100735.88;;;-2.93;100.00
42859;BME280;28505;56.970;40.998;2023-03-19T17:56:49;100746.25;;;-2.91;100.00
42859;BME280;28505;56.970;40.998;2023-03-19T18:02:26;100733.03;;;-2.91;100.00
42859;BME280;28505;56.970;40.998;2023-03-19T18:07:50;100741.13;;;-2.78;100.00
42859;BME280;28505;56.970;40.998;2023-03-19T18:13:13;100749.97;;;-2.86;100.00
42859;BME280;28505;56.970;40.998;2023-03-19T18:18:36;100741.09;;;-3.14;100.00
42859;BME280;28505;56.970;40.998;2023-03-19T18:23:58;100731.94;;;-3.33;100.00
42859;BME280;28505;56.970;40.998;2023-03-19T18:29:20;100718.03;;;-3.57;100.00
42859;BME280;28505;56.970;40.998;2023-03-19T18:34:42;100710.03;;;-3.63;100.00
42859;BME280;28505;56.970;40.998;2023-03-19T18:40:05;100738.31;;;-3.42;100.00
42859;BME280;28505;56.970;40.998;2023-03-19T18:45:28;100721.41;;;-3.48;100.00
42859;BME280;28505;56.970;40.998;2023-03-19T18:50:54;100730.41;;;-3.57;100.00
42859;BME280;28505;56.970;40.998;2023-03-19T18:56:28;100715.03;;;-3.83;100.00
42859;BME280;28505;56.970;40.998;2023-03-19T19:07:38;100717.66;;;-3.98;100.00
42859;BME280;28505;56.970;40.998;2023-03-19T19:13:00;100715.19;;;-4.00;100.00
42859;BME280;28505;56.970;40.998;2023-03-19T19:18:25;100708.53;;;-4.10;100.00
42859;BME280;28505;56.970;40.998;2023-03-19T19:23:49;100701.09;;;-4.07;100.00
42859;BME280;28505;56.970;40.998;2023-03-19T19:29:23;100703.84;;;-4.00;100.00
42859;BME280;28505;56.970;40.998;2023-03-19T19:34:46;100706.09;;;-4.12;100.00
42859;BME280;28505;56.970;40.998;2023-03-19T19:40:12;100693.44;;;-4.16;100.00
42859;BME280;28505;56.970;40.998;2023-03-19T19:45:36;100676.28;;;-4.27;100.00
42859;BME280;28505;56.970;40.998;2023-03-19T19:50:59;100681.34;;;-4.40;100.00
42859;BME280;28505;56.970;40.998;2023-03-19T19:56:23;100700.28;;;-4.45;100.00
42859;BME280;28505;56.970;40.998;2023-03-19T20:01:46;100679.69;;;-4.64;100.00
42859;BME280;28505;56.970;40.998;2023-03-19T20:07:08;100679.22;;;-4.68;100.00
42859;BME280;28505;56.970;40.998;2023-03-19T20:12:31;100690.59;;;-4.67;100.00
42859;BME280;28505;56.970;40.998;2023-03-19T20:17:54;100696.94;;;-4.85;100.00
42859;BME280;28505;56.970;40.998;2023-03-19T20:23:17;100690.09;;;-4.94;100.00
42859;BME280;28505;56.970;40.998;2023-03-19T20:28:40;100692.44;;;-4.99;100.00
42859;BME280;28505;56.970;40.998;2023-03-19T20:34:02;100681.34;;;-5.09;100.00
42859;BME280;28505;56.970;40.998;2023-03-19T20:39:24;100681.00;;;-5.14;100.00
42859;BME280;28505;56.970;40.998;2023-03-19T20:44:46;100692.53;;;-5.15;100.00
42859;BME280;28505;56.970;40.998;2023-03-19T20:50:29;100660.47;;;-5.42;100.00
42859;BME280;28505;56.970;40.998;2023-03-19T20:55:55;100671.13;;;-5.44;100.00
42859;BME280;28505;56.970;40.998;2023-03-19T21:01:18;100681.16;;;-5.39;100.00
42859;BME280;28505;56.970;40.998;2023-03-19T21:06:40;100674.56;;;-5.35;100.00
42859;BME280;28505;56.970;40.998;2023-03-19T21:12:26;100654.94;;;-5.55;100.00
42859;BME280;28505;56.970;40.998;2023-03-19T21:17:49;100671.00;;;-5.50;100.00
42859;BME280;28505;56.970;40.998;2023-03-19T21:29:05;100660.13;;;-5.78;100.00
42859;BME280;28505;56.970;40.998;2023-03-19T21:34:29;100639.66;;;-5.91;100.00
42859;BME280;28505;56.970;40.998;2023-03-19T21:39:51;100638.72;;;-5.98;100.00
42859;BME280;28505;56.970;40.998;2023-03-19T21:45:16;100646.28;;;-6.03;100.00
42859;BME280;28505;56.970;40.998;2023-03-19T21:50:41;100669.81;;;-5.87;100.00
42859;BME280;28505;56.970;40.998;2023-03-19T21:56:05;100670.53;;;-5.93;100.00
42859;BME280;28505;56.970;40.998;2023-03-19T22:01:27;100658.41;;;-5.94;100.00
42859;BME280;28505;56.970;40.998;2023-03-19T22:06:50;100657.66;;;-5.80;100.00
42859;BME280;28505;56.970;40.998;2023-03-19T22:12:25;100652.41;;;-5.80;100.00
42859;BME280;28505;56.970;40.998;2023-03-19T22:17:48;100654.22;;;-5.80;100.00
42859;BME280;28505;56.970;40.998;2023-03-19T22:23:12;100642.34;;;-6.07;100.00
42859;BME280;28505;56.970;40.998;2023-03-19T22:28:34;100637.13;;;-6.32;100.00
42859;BME280;28505;56.970;40.998;2023-03-19T22:33:57;100658.44;;;-6.35;100.00
42859;BME280;28505;56.970;40.998;2023-03-19T22:39:19;100631.41;;;-6.52;100.00
42859;BME280;28505;56.970;40.998;2023-03-19T22:44:41;100643.69;;;-6.44;100.00
42859;BME280;28505;56.970;40.998;2023-03-19T22:50:05;100638.44;;;-6.44;100.00
42859;BME280;28505;56.970;40.998;2023-03-19T22:55:31;100643.38;;;-6.57;100.00
42859;BME280;28505;56.970;40.998;2023-03-19T23:00:57;100637.66;;;-6.61;100.00
42859;BME280;28505;56.970;40.998;2023-03-19T23:06:21;100649.13;;;-6.62;100.00
42859;BME280;28505;56.970;40.998;2023-03-19T23:11:52;100639.13;;;-6.58;100.00
42859;BME280;28505;56.970;40.998;2023-03-19T23:17:40;100634.06;;;-6.60;100.00
42859;BME280;28505;56.970;40.998;2023-03-19T23:23:03;100634.88;;;-6.60;100.00
42859;BME280;28505;56.970;40.998;2023-03-19T23:28:29;100617.16;;;-6.74;100.00
42859;BME280;28505;56.970;40.998;2023-03-19T23:33:52;100630.94;;;-6.72;100.00
42859;BME280;28505;56.970;40.998;2023-03-19T23:39:14;100613.56;;;-6.89;100.00
42859;BME280;28505;56.970;40.998;2023-03-19T23:44:37;100613.41;;;-6.96;100.00
42859;BME280;28505;56.970;40.998;2023-03-19T23:49:59;100613.09;;;-6.93;100.00
42859;BME280;28505;56.970;40.998;2023-03-19T23:55:22;100608.97;;;-7.12;100.00
